LTBJ

Izmir/Adnan Menderes Airport

Airport
ICAO code
LTBJ
IATA Code
ADB
Summary
ICAO Region
EUR
ICAO Territory
Location

Izmir,

Serving
Izmir
Elevation
412 ft
Coordinates
38° 17' 37" N , 27° 9' 8" E
Metar
LTBJ 201620Z 33010KT 9999 SCT030 15/09 Q1008 NOSIG

Runways

Designator Length Width Surface Rops
16L/34R 3240 45 ASP Yes/Yes
16R/34L 3240 45 CON Yes/Yes

Airport map

Aerial View

SKYbrary Partners:

Safety knowledge contributed by: